Observation data for Gail on 07/04/2020      Previous  Date       Current Mesonet Observations  Soil Data  Daily Summary Page  Observations in Plain Language
KGGS 040500Z 13005KT 26/10 A3003 RMK A01 T02580099  RH  038%=      5-min Rain = 0
KGGS 040505Z 13005KT 26/10 A3003 RMK A01 T02580099  RH  038%=      5-min Rain = 0
KGGS 040510Z 13005KT 26/10 A3003 RMK A01 T02560102  RH  039%=      5-min Rain = 0
KGGS 040515Z 13005KT 26/10 A3003 RMK A01 T02560099  RH  038%=      5-min Rain = 0
KGGS 040520Z 12005KT 26/10 A3002 RMK A01 T02580099  RH  038%=      5-min Rain = 0
KGGS 040525Z 12005KT 26/10 A3002 RMK A01 T02580097  RH  037%=      5-min Rain = 0
KGGS 040530Z 12005KT 26/10 A3002 RMK A01 T02600096  RH  037%=      5-min Rain = 0
KGGS 040535Z 12005KT 26/10 A3002 RMK A01 T02610095  RH  036%=      5-min Rain = 0
KGGS 040540Z 13004KT 26/09 A3002 RMK A01 T02610093  RH  036%=      5-min Rain = 0
KGGS 040545Z 13004KT 26/09 A3002 RMK A01 T02600094  RH  036%=      5-min Rain = 0
KGGS 040550Z 12004KT 26/10 A3002 RMK A01 T02570095  RH  037%=      5-min Rain = 0
KGGS 040555Z 12003KT 25/10 A3002 RMK A01 T02540097  RH  038%=      5-min Rain = 0
KGGS 040600Z 13002KT 25/10 A3002 RMK A01 T02500096  RH  039%=      5-min Rain = 0
KGGS 040605Z 12001KT 25/10 A3002 RMK A01 T02470099  RH  040%=      5-min Rain = 0
KGGS 040610Z 12001KT 24/10 A3002 RMK A01 T02430097  RH  041%=      5-min Rain = 0
KGGS 040615Z 11002KT 24/10 A3002 RMK A01 T02410099  RH  042%=      5-min Rain = 0
KGGS 040620Z 10002KT 24/10 A3002 RMK A01 T02400101  RH  043%=      5-min Rain = 0
KGGS 040625Z 12002KT 24/10 A3002 RMK A01 T02380101  RH  043%=      5-min Rain = 0
KGGS 040630Z 12002KT 24/09 A3001 RMK A01 T02390094  RH  041%=      5-min Rain = 0
KGGS 040635Z 12001KT 24/09 A3001 RMK A01 T02420092  RH  040%=      5-min Rain = 0
KGGS 040640Z 10001KT 24/10 A3001 RMK A01 T02420099  RH  042%=      5-min Rain = 0
KGGS 040645Z 10001KT 24/10 A3001 RMK A01 T02390102  RH  043%=      5-min Rain = 0
KGGS 040650Z 11001KT 24/10 A3001 RMK A01 T02350097  RH  043%=      5-min Rain = 0
KGGS 040655Z 14002KT 23/10 A3001 RMK A01 T02320096  RH  044%=      5-min Rain = 0
KGGS 040700Z 14002KT 23/09 A3001 RMK A01 T02330093  RH  042%=      5-min Rain = 0
KGGS 040705Z 14001KT 24/09 A3001 RMK A01 T02350088  RH  040%=      5-min Rain = 0
KGGS 040710Z 00000KT 24/09 A3001 RMK A01 T02410088  RH  039%=      5-min Rain = 0
KGGS 040715Z 30001KT 24/09 A3001 RMK A01 T02380093  RH  041%=      5-min Rain = 0
KGGS 040720Z 32003KT 23/11 A3001 RMK A01 T02290105  RH  047%=      5-min Rain = 0
KGGS 040725Z 33003KT 22/11 A3001 RMK A01 T02200114  RH  053%=      5-min Rain = 0
KGGS 040730Z 32002KT 22/12 A3001 RMK A01 T02170118  RH  055%=      5-min Rain = 0
KGGS 040735Z 33001KT 22/12 A3001 RMK A01 T02180117  RH  055%=      5-min Rain = 0
KGGS 040740Z 13001KT 22/12 A3001 RMK A01 T02170118  RH  055%=      5-min Rain = 0
KGGS 040745Z 12002KT 22/12 A3001 RMK A01 T02160118  RH  056%=      5-min Rain = 0
KGGS 040750Z 14003KT 22/11 A3001 RMK A01 T02160114  RH  054%=      5-min Rain = 0
KGGS 040755Z 13003KT 23/10 A3001 RMK A01 T02250101  RH  047%=      5-min Rain = 0
KGGS 040800Z 11003KT 23/11 A3001 RMK A01 T02260111  RH  050%=      5-min Rain = 0
KGGS 040805Z 12004KT 23/11 A3001 RMK A01 T02260105  RH  048%=      5-min Rain = 0
KGGS 040810Z 12003KT 23/10 A3001 RMK A01 T02290100  RH  045%=      5-min Rain = 0
KGGS 040815Z 12002KT 23/10 A3001 RMK A01 T02300096  RH  044%=      5-min Rain = 0
KGGS 040820Z 12001KT 23/09 A3001 RMK A01 T02320094  RH  043%=      5-min Rain = 0
KGGS 040825Z 12000KT 23/10 A3001 RMK A01 T02300101  RH  045%=      5-min Rain = 0
KGGS 040830Z 12001KT 23/11 A3001 RMK A01 T02250105  RH  048%=      5-min Rain = 0
KGGS 040835Z 13002KT 22/10 A3001 RMK A01 T02210099  RH  047%=      5-min Rain = 0
KGGS 040840Z 14003KT 22/10 A3001 RMK A01 T02190100  RH  048%=      5-min Rain = 0
KGGS 040845Z 17002KT 23/09 A3001 RMK A01 T02260093  RH  044%=      5-min Rain = 0
KGGS 040850Z 15003KT 23/10 A3001 RMK A01 T02270099  RH  046%=      5-min Rain = 0
KGGS 040855Z 15002KT 23/10 A3001 RMK A01 T02250097  RH  046%=      5-min Rain = 0
KGGS 040900Z 14002KT 23/10 A3001 RMK A01 T02250102  RH  047%=      5-min Rain = 0
KGGS 040905Z 13001KT 22/10 A3002 RMK A01 T02230098  RH  046%=      5-min Rain = 0
KGGS 040910Z 16001KT 22/10 A3002 RMK A01 T02240098  RH  046%=      5-min Rain = 0
KGGS 040915Z 16001KT 22/10 A3002 RMK A01 T02240101  RH  047%=      5-min Rain = 0
KGGS 040920Z 16000KT 22/12 A3002 RMK A01 T02170120  RH  056%=      5-min Rain = 0
KGGS 040925Z 00000KT 21/12 A3002 RMK A01 T02110119  RH  057%=      5-min Rain = 0
KGGS 040930Z 00000KT 21/12 A3002 RMK A01 T02080122  RH  060%=      5-min Rain = 0
KGGS 040935Z 00000KT 21/12 A3003 RMK A01 T02060120  RH  060%=      5-min Rain = 0
KGGS 040940Z 13001KT 21/12 A3003 RMK A01 T02050119  RH  060%=      5-min Rain = 0
KGGS 040945Z 14001KT 21/11 A3003 RMK A01 T02060107  RH  055%=      5-min Rain = 0
KGGS 040950Z 14000KT 21/10 A3003 RMK A01 T02120100  RH  050%=      5-min Rain = 0
KGGS 040955Z 14000KT 21/11 A3003 RMK A01 T02120113  RH  055%=      5-min Rain = 0
KGGS 041000Z 07001KT 21/12 A3002 RMK A01 T02060119  RH  059%=      5-min Rain = 0
KGGS 041005Z 12001KT 20/12 A3002 RMK A01 T02030117  RH  060%=      5-min Rain = 0
KGGS 041010Z 12000KT 21/11 A3002 RMK A01 T02050107  RH  055%=      5-min Rain = 0
KGGS 041015Z 00000KT 21/10 A3002 RMK A01 T02090104  RH  053%=      5-min Rain = 0
KGGS 041020Z 16000KT 21/10 A3002 RMK A01 T02130103  RH  051%=      5-min Rain = 0
KGGS 041025Z 15001KT 21/11 A3002 RMK A01 T02110108  RH  054%=      5-min Rain = 0
KGGS 041030Z 15001KT 21/12 A3002 RMK A01 T02060120  RH  060%=      5-min Rain = 0
KGGS 041035Z 14000KT 20/12 A3002 RMK A01 T02030115  RH  059%=      5-min Rain = 0
KGGS 041040Z 09000KT 20/11 A3002 RMK A01 T02040114  RH  058%=      5-min Rain = 0
KGGS 041045Z 09001KT 20/12 A3002 RMK A01 T02030115  RH  059%=      5-min Rain = 0
KGGS 041050Z 08000KT 20/11 A3002 RMK A01 T02020108  RH  057%=      5-min Rain = 0
KGGS 041055Z 02001KT 21/10 A3002 RMK A01 T02070099  RH  052%=      5-min Rain = 0
KGGS 041100Z 01000KT 21/10 A3003 RMK A01 T02090101  RH  052%=      5-min Rain = 0
KGGS 041105Z 00000KT 21/11 A3002 RMK A01 T02080105  RH  053%=      5-min Rain = 0
KGGS 041110Z 01000KT 21/11 A3003 RMK A01 T02070108  RH  055%=      5-min Rain = 0
KGGS 041115Z 01000KT 21/10 A3003 RMK A01 T02050104  RH  054%=      5-min Rain = 0
KGGS 041120Z 00000KT 21/10 A3003 RMK A01 T02090098  RH  051%=      5-min Rain = 0
KGGS 041125Z 00000KT 21/10 A3003 RMK A01 T02100100  RH  051%=      5-min Rain = 0
KGGS 041130Z 01000KT 21/11 A3003 RMK A01 T02090110  RH  055%=      5-min Rain = 0
KGGS 041135Z 01000KT 21/12 A3003 RMK A01 T02060115  RH  058%=      5-min Rain = 0
KGGS 041140Z 01000KT 20/12 A3003 RMK A01 T02030117  RH  060%=      5-min Rain = 0
KGGS 041145Z 00001KT 20/11 A3003 RMK A01 T02000113  RH  059%=      5-min Rain = 0
KGGS 041150Z 34002KT 20/10 A3004 RMK A01 T02040103  RH  054%=      5-min Rain = 0
KGGS 041155Z 34002KT 21/11 A3004 RMK A01 T02050107  RH  055%=      5-min Rain = 0
KGGS 041200Z 33002KT 20/11 A3004 RMK A01 T02020112  RH  058%=      5-min Rain = 0
KGGS 041205Z 33002KT 20/12 A3004 RMK A01 T02020118  RH  061%=      5-min Rain = 0
KGGS 041210Z 33001KT 20/12 A3004 RMK A01 T02030121  RH  061%=      5-min Rain = 0
KGGS 041215Z 33001KT 21/12 A3004 RMK A01 T02060124  RH  062%=      5-min Rain = 0
KGGS 041220Z 32002KT 21/13 A3003 RMK A01 T02090128  RH  062%=      5-min Rain = 0
KGGS 041225Z 32003KT 21/13 A3003 RMK A01 T02120131  RH  062%=      5-min Rain = 0
KGGS 041230Z 32004KT 22/12 A3003 RMK A01 T02160123  RH  057%=      5-min Rain = 0
KGGS 041235Z 31003KT 22/12 A3003 RMK A01 T02190124  RH  057%=      5-min Rain = 0
KGGS 041240Z 31003KT 22/12 A3003 RMK A01 T02210124  RH  056%=      5-min Rain = 0
KGGS 041245Z 31002KT 22/13 A3003 RMK A01 T02240126  RH  056%=      5-min Rain = 0
KGGS 041250Z 31002KT 23/13 A3003 RMK A01 T02260129  RH  057%=      5-min Rain = 0
KGGS 041255Z 32002KT 23/13 A3003 RMK A01 T02270134  RH  058%=      5-min Rain = 0
KGGS 041300Z 32003KT 23/13 A3003 RMK A01 T02310133  RH  056%=      5-min Rain = 0
KGGS 041305Z 32002KT 24/13 A3003 RMK A01 T02360131  RH  054%=      5-min Rain = 0
KGGS 041310Z 32002KT 24/13 A3004 RMK A01 T02420128  RH  051%=      5-min Rain = 0
KGGS 041315Z 32001KT 25/13 A3004 RMK A01 T02480127  RH  049%=      5-min Rain = 0
KGGS 041320Z 30000KT 26/13 A3004 RMK A01 T02580130  RH  047%=      5-min Rain = 0
KGGS 041325Z 30002KT 27/13 A3004 RMK A01 T02670133  RH  045%=      5-min Rain = 0
KGGS 041330Z 28002KT 27/14 A3004 RMK A01 T02710135  RH  045%=      5-min Rain = 0
KGGS 041335Z 29003KT 28/14 A3004 RMK A01 T02790137  RH  044%=      5-min Rain = 0
KGGS 041340Z 27005KT 28/13 A3004 RMK A01 T02820134  RH  042%=      5-min Rain = 0
KGGS 041345Z 27007KT 29/13 A3004 RMK A01 T02850131  RH  040%=      5-min Rain = 0
KGGS 041350Z 27009KT 29/13 A3004 RMK A01 T02870133  RH  040%=      5-min Rain = 0
KGGS 041355Z 26007KT 29/13 A3004 RMK A01 T02880131  RH  039%=      5-min Rain = 0
KGGS 041400Z 27006KT 29/13 A3004 RMK A01 T02900129  RH  039%=      5-min Rain = 0
KGGS 041405Z 27005KT 29/13 A3004 RMK A01 T02930127  RH  037%=      5-min Rain = 0
KGGS 041410Z 30005KT 30/13 A3004 RMK A01 T02960126  RH  037%=      5-min Rain = 0
KGGS 041415Z 31004KT 30/13 A3004 RMK A01 T02980129  RH  037%=      5-min Rain = 0
KGGS 041420Z 30007KT 30/13 A3004 RMK A01 T03010127  RH  036%=      5-min Rain = 0
KGGS 041425Z 30007KT 31/13 A3004 RMK A01 T03050127  RH  035%=      5-min Rain = 0
KGGS 041430Z 29005KT 31/13 A3004 RMK A01 T03080127  RH  034%=      5-min Rain = 0
KGGS 041435Z 30007KT 31/13 A3003 RMK A01 T03080125  RH  034%=      5-min Rain = 0
KGGS 041440Z 30007KT 31/12 A3003 RMK A01 T03090124  RH  034%=      5-min Rain = 0
KGGS 041445Z 29008KT 31/13 A3003 RMK A01 T03120125  RH  033%=      5-min Rain = 0
KGGS 041450Z 29007KT 31/13 A3003 RMK A01 T03120125  RH  033%=      5-min Rain = 0
KGGS 041455Z 28007KT 31/13 A3003 RMK A01 T03140126  RH  033%=      5-min Rain = 0
KGGS 041500Z 26007KT 32/13 A3003 RMK A01 T03170126  RH  032%=      5-min Rain = 0
KGGS 041505Z 26009KT 32/12 A3003 RMK A01 T03150124  RH  032%=      5-min Rain = 0
KGGS 041510Z 26007KT 32/13 A3003 RMK A01 T03170125  RH  032%=      5-min Rain = 0
KGGS 041515Z 27007G12KT 32/13 A3003 RMK A01 T03210127  RH  032%=      5-min Rain = 0
KGGS 041520Z 27008KT 32/13 A3003 RMK A01 T03220126  RH  032%=      5-min Rain = 0
KGGS 041525Z 25007KT 32/12 A3003 RMK A01 T03200124  RH  031%=      5-min Rain = 0
KGGS 041530Z 25005KT 32/13 A3003 RMK A01 T03220125  RH  031%=      5-min Rain = 0
KGGS 041535Z 26007G12KT 32/12 A3003 RMK A01 T03230124  RH  031%=      5-min Rain = 0
KGGS 041540Z 26005G11KT 32/12 A3003 RMK A01 T03220123  RH  031%=      5-min Rain = 0
KGGS 041545Z 26006KT 32/12 A3003 RMK A01 T03240123  RH  030%=      5-min Rain = 0
KGGS 041550Z 26005KT 33/12 A3003 RMK A01 T03280124  RH  030%=      5-min Rain = 0
KGGS 041555Z 24005KT 33/12 A3004 RMK A01 T03290124  RH  030%=      5-min Rain = 0
KGGS 041600Z 27007KT 33/13 A3004 RMK A01 T03320126  RH  030%=      5-min Rain = 0
KGGS 041605Z 29007KT 33/12 A3004 RMK A01 T03300124  RH  030%=      5-min Rain = 0
KGGS 041610Z 27007KT 34/13 A3004 RMK A01 T03350126  RH  029%=      5-min Rain = 0
KGGS 041615Z 27004G9KT 33/12 A3004 RMK A01 T03320123  RH  029%=      5-min Rain = 0
KGGS 041620Z 28006KT 33/13 A3004 RMK A01 T03330127  RH  030%=      5-min Rain = 0
KGGS 041625Z 30005KT 34/13 A3004 RMK A01 T03370126  RH  029%=      5-min Rain = 0
KGGS 041630Z 27007KT 34/13 A3004 RMK A01 T03380129  RH  029%=      5-min Rain = 0
KGGS 041635Z 27004KT 34/12 A3004 RMK A01 T03360124  RH  029%=      5-min Rain = 0
KGGS 041640Z 29004G9KT 34/13 A3004 RMK A01 T03380125  RH  029%=      5-min Rain = 0
KGGS 041645Z 27003G8KT 34/12 A3004 RMK A01 T03380121  RH  028%=      5-min Rain = 0
KGGS 041650Z 29004G9KT 34/12 A3004 RMK A01 T03400124  RH  028%=      5-min Rain = 0
KGGS 041655Z 32006G11KT 34/13 A3004 RMK A01 T03410125  RH  028%=      5-min Rain = 0
KGGS 041700Z 32006KT 34/12 A3004 RMK A01 T03420124  RH  028%=      5-min Rain = 0
KGGS 041705Z 02003KT 34/12 A3004 RMK A01 T03390119  RH  027%=      5-min Rain = 0
KGGS 041710Z 10002KT 34/12 A3004 RMK A01 T03420123  RH  028%=      5-min Rain = 0
KGGS 041715Z 33003KT 35/12 A3003 RMK A01 T03460124  RH  027%=      5-min Rain = 0
KGGS 041720Z 34005KT 35/13 A3003 RMK A01 T03500127  RH  027%=      5-min Rain = 0
KGGS 041725Z 36006KT 35/12 A3003 RMK A01 T03450124  RH  027%=      5-min Rain = 0
KGGS 041730Z 29005KT 35/12 A3003 RMK A01 T03480122  RH  027%=      5-min Rain = 0
KGGS 041735Z 29002KT 35/12 A3003 RMK A01 T03480119  RH  026%=      5-min Rain = 0
KGGS 041740Z 02004KT 35/12 A3003 RMK A01 T03510117  RH  025%=      5-min Rain = 0
KGGS 041745Z 03004G9KT 35/12 A3003 RMK A01 T03470116  RH  026%=      5-min Rain = 0
KGGS 041750Z 27003KT 35/12 A3003 RMK A01 T03490119  RH  026%=      5-min Rain = 0
KGGS 041755Z 25004KT 36/12 A3003 RMK A01 T03550121  RH  025%=      5-min Rain = 0
KGGS 041800Z 26005KT 35/12 A3002 RMK A01 T03500120  RH  026%=      5-min Rain = 0
KGGS 041805Z 22004KT 35/12 A3002 RMK A01 T03510120  RH  026%=      5-min Rain = 0
KGGS 041810Z 27005KT 34/12 A3002 RMK A01 T03440122  RH  027%=      5-min Rain = 0
KGGS 041815Z 27004KT 34/12 A3002 RMK A01 T03410115  RH  026%=      5-min Rain = 0
KGGS 041820Z 22004KT 35/12 A3002 RMK A01 T03470115  RH  026%=      5-min Rain = 0
KGGS 041825Z 22005KT 36/11 A3002 RMK A01 T03550112  RH  024%=      5-min Rain = 0
KGGS 041830Z 22005KT 36/11 A3002 RMK A01 T03550114  RH  024%=      5-min Rain = 0
KGGS 041835Z 24004KT 36/11 A3002 RMK A01 T03560113  RH  024%=      5-min Rain = 0
KGGS 041840Z 31005KT 35/12 A3001 RMK A01 T03510118  RH  025%=      5-min Rain = 0
KGGS 041845Z 35002KT 35/12 A3001 RMK A01 T03470117  RH  026%=      5-min Rain = 0
KGGS 041850Z 00002KT 35/12 A3001 RMK A01 T03490120  RH  026%=      5-min Rain = 0
KGGS 041855Z 03002KT 35/12 A3001 RMK A01 T03530118  RH  025%=      5-min Rain = 0
KGGS 041900Z 08002KT 36/12 A3001 RMK A01 T03570115  RH  024%=      5-min Rain = 0
KGGS 041905Z 08007KT 36/11 A30 RMK A01 T03580112  RH  023%=      5-min Rain = 0
KGGS 041910Z 07006KT 36/11 A30 RMK A01 T03590111  RH  023%=      5-min Rain = 0
KGGS 041915Z 04004G9KT 36/11 A30 RMK A01 T03610112  RH  023%=      5-min Rain = 0
KGGS 041920Z 03004G9KT 36/11 A30 RMK A01 T03600109  RH  023%=      5-min Rain = 0
KGGS 041925Z 12005G11KT 35/10 A30 RMK A01 T03540101  RH  022%=      5-min Rain = 0
KGGS 041930Z 10006KT 35/10 A30 RMK A01 T03530101  RH  022%=      5-min Rain = 0
KGGS 041935Z 19004KT 36/11 A2999 RMK A01 T03600106  RH  022%=      5-min Rain = 0
KGGS 041940Z 12004G10KT 36/10 A2999 RMK A01 T03610103  RH  022%=      5-min Rain = 0
KGGS 041945Z 12004G9KT 36/10 A2999 RMK A01 T03640100  RH  021%=      5-min Rain = 0
KGGS 041950Z 26003KT 36/10 A2999 RMK A01 T03640102  RH  021%=      5-min Rain = 0
KGGS 041955Z 19002KT 36/10 A2998 RMK A01 T03630097  RH  020%=      5-min Rain = 0
KGGS 042000Z 13002KT 37/10 A2998 RMK A01 T03650098  RH  020%=      5-min Rain = 0
KGGS 042005Z 12002KT 37/10 A2998 RMK A01 T03650098  RH  020%=      5-min Rain = 0
KGGS 042010Z 10006KT 37/10 A2998 RMK A01 T03650102  RH  021%=      5-min Rain = 0
KGGS 042015Z 11006G11KT 36/10 A2998 RMK A01 T03620098  RH  021%=      5-min Rain = 0
KGGS 042020Z 15005KT 37/10 A2998 RMK A01 T03660097  RH  020%=      5-min Rain = 0
KGGS 042025Z 19005KT 37/10 A2997 RMK A01 T03660095  RH  020%=      5-min Rain = 0
KGGS 042030Z 14002KT 37/09 A2997 RMK A01 T03660091  RH  019%=      5-min Rain = 0
KGGS 042035Z 06002KT 36/09 A2997 RMK A01 T03620090  RH  020%=      5-min Rain = 0
KGGS 042040Z 33002KT 37/10 A2997 RMK A01 T03700095  RH  020%=      5-min Rain = 0
KGGS 042045Z 10004G9KT 37/09 A2996 RMK A01 T03720092  RH  019%=      5-min Rain = 0
KGGS 042050Z 07004KT 37/09 A2996 RMK A01 T03660091  RH  019%=      5-min Rain = 0
KGGS 042055Z 08003KT 37/09 A2996 RMK A01 T03690092  RH  019%=      5-min Rain = 0
KGGS 042100Z 32001KT 37/09 A2995 RMK A01 T03700093  RH  019%=      5-min Rain = 0
KGGS 042105Z 20005G12KT 37/10 A2995 RMK A01 T03740096  RH  019%=      5-min Rain = 0
KGGS 042110Z 16007KT 37/09 A2995 RMK A01 T03730094  RH  019%=      5-min Rain = 0
KGGS 042115Z 19006G12KT 37/10 A2995 RMK A01 T03730098  RH  020%=      5-min Rain = 0
KGGS 042120Z 20007KT 37/10 A2995 RMK A01 T03650095  RH  020%=      5-min Rain = 0
KGGS 042125Z 24004KT 37/10 A2994 RMK A01 T03650095  RH  020%=      5-min Rain = 0
KGGS 042130Z 17005KT 37/10 A2994 RMK A01 T03700097  RH  020%=      5-min Rain = 0
KGGS 042135Z 18006KT 38/10 A2994 RMK A01 T03770097  RH  019%=      5-min Rain = 0
KGGS 042140Z 18004G9KT 38/10 A2994 RMK A01 T03800096  RH  019%=      5-min Rain = 0
KGGS 042145Z 15004KT 38/09 A2994 RMK A01 T03800094  RH  018%=      5-min Rain = 0
KGGS 042150Z 19006KT 38/09 A2993 RMK A01 T03760094  RH  019%=      5-min Rain = 0
KGGS 042155Z 25003KT 37/09 A2993 RMK A01 T03690093  RH  019%=      5-min Rain = 0
KGGS 042200Z 34002KT 37/10 A2993 RMK A01 T03700095  RH  019%=      5-min Rain = 0
KGGS 042205Z 17003G8KT 37/10 A2992 RMK A01 T03710096  RH  020%=      5-min Rain = 0
KGGS 042210Z 16005KT 37/10 A2992 RMK A01 T03710095  RH  019%=      5-min Rain = 0
KGGS 042215Z 15003KT 37/10 A2992 RMK A01 T03710099  RH  020%=      5-min Rain = 0
KGGS 042220Z 19005KT 37/10 A2992 RMK A01 T03700097  RH  020%=      5-min Rain = 0
KGGS 042225Z 26003KT 37/09 A2991 RMK A01 T03670092  RH  020%=      5-min Rain = 0
KGGS 042230Z 29002KT 37/09 A2991 RMK A01 T03730094  RH  019%=      5-min Rain = 0
KGGS 042235Z 32002KT 38/10 A2991 RMK A01 T03780095  RH  019%=      5-min Rain = 0
KGGS 042240Z 06004KT 38/09 A2991 RMK A01 T03770090  RH  018%=      5-min Rain = 0
KGGS 042245Z 05003KT 37/09 A299 RMK A01 T03740091  RH  019%=      5-min Rain = 0
KGGS 042250Z 13005KT 38/10 A299 RMK A01 T03790096  RH  019%=      5-min Rain = 0
KGGS 042255Z 14006KT 37/09 A299 RMK A01 T03740091  RH  019%=      5-min Rain = 0
KGGS 042300Z 13007KT 37/09 A299 RMK A01 T03660090  RH  019%=      5-min Rain = 0
KGGS 042305Z 08004KT 37/09 A299 RMK A01 T03650087  RH  019%=      5-min Rain = 0
KGGS 042310Z 11003KT 36/09 A299 RMK A01 T03630089  RH  019%=      5-min Rain = 0
KGGS 042315Z 15005KT 36/09 A299 RMK A01 T03640094  RH  020%=      5-min Rain = 0
KGGS 042320Z 15006KT 36/09 A299 RMK A01 T03630091  RH  020%=      5-min Rain = 0
KGGS 042325Z 16005KT 36/09 A2989 RMK A01 T03630088  RH  019%=      5-min Rain = 0
KGGS 042330Z 12003KT 37/09 A2989 RMK A01 T03700090  RH  019%=      5-min Rain = 0
KGGS 042335Z 14004G9KT 37/09 A2989 RMK A01 T03700092  RH  019%=      5-min Rain = 0
KGGS 042340Z 17006KT 37/09 A2989 RMK A01 T03690093  RH  019%=      5-min Rain = 0
KGGS 042345Z 19007KT 36/09 A2988 RMK A01 T03620089  RH  020%=      5-min Rain = 0
KGGS 042350Z 18005KT 36/09 A2988 RMK A01 T03590091  RH  020%=      5-min Rain = 0
KGGS 042355Z 18006KT 36/09 A2988 RMK A01 T03570091  RH  020%=      5-min Rain = 0
KGGS 050000Z 16004KT 36/09 A2988 RMK A01 T03570093  RH  021%=      5-min Rain = 0
KGGS 050005Z 16004KT 36/10 A2988 RMK A01 T03570096  RH  021%=      5-min Rain = 0
KGGS 050010Z 16004KT 36/10 A2988 RMK A01 T03560096  RH  021%=      5-min Rain = 0
KGGS 050015Z 17002KT 36/10 A2989 RMK A01 T03570096  RH  021%=      5-min Rain = 0
KGGS 050020Z 17003KT 36/10 A2989 RMK A01 T03570101  RH  022%=      5-min Rain = 0
KGGS 050025Z 17003KT 36/10 A2989 RMK A01 T03570099  RH  022%=      5-min Rain = 0
KGGS 050030Z 18004KT 36/10 A2989 RMK A01 T03550104  RH  022%=      5-min Rain = 0
KGGS 050035Z 17005KT 35/10 A2989 RMK A01 T03540100  RH  022%=      5-min Rain = 0
KGGS 050040Z 17005KT 35/10 A2989 RMK A01 T03530100  RH  022%=      5-min Rain = 0
KGGS 050045Z 18005KT 35/10 A2989 RMK A01 T03530095  RH  021%=      5-min Rain = 0
KGGS 050050Z 18004KT 35/10 A2989 RMK A01 T03520098  RH  022%=      5-min Rain = 0
KGGS 050055Z 16004KT 35/10 A2989 RMK A01 T03510099  RH  022%=      5-min Rain = 0
KGGS 050100Z 16003KT 35/10 A299 RMK A01 T03510101  RH  023%=      5-min Rain = 0
KGGS 050105Z 15003KT 35/10 A299 RMK A01 T03500103  RH  023%=      5-min Rain = 0
KGGS 050110Z 14003KT 35/11 A299 RMK A01 T03480106  RH  024%=      5-min Rain = 0
KGGS 050115Z 14004KT 35/11 A299 RMK A01 T03460108  RH  024%=      5-min Rain = 0
KGGS 050120Z 14003KT 34/11 A299 RMK A01 T03440107  RH  024%=      5-min Rain = 0
KGGS 050125Z 13003KT 34/11 A299 RMK A01 T03430109  RH  025%=      5-min Rain = 0
KGGS 050130Z 11003KT 34/11 A299 RMK A01 T03420110  RH  025%=      5-min Rain = 0
KGGS 050135Z 10003KT 34/11 A2991 RMK A01 T03410114  RH  026%=      5-min Rain = 0
KGGS 050140Z 10004KT 34/11 A2991 RMK A01 T03380114  RH  027%=      5-min Rain = 0
KGGS 050145Z 12005KT 34/11 A2991 RMK A01 T03370110  RH  026%=      5-min Rain = 0
KGGS 050150Z 12004KT 34/11 A2991 RMK A01 T03350108  RH  026%=      5-min Rain = 0
KGGS 050155Z 12004KT 34/11 A2991 RMK A01 T03360105  RH  025%=      5-min Rain = 0
KGGS 050200Z 12004KT 34/11 A2992 RMK A01 T03350106  RH  025%=      5-min Rain = 0
KGGS 050205Z 12005KT 33/11 A2992 RMK A01 T03340106  RH  026%=      5-min Rain = 0
KGGS 050210Z 13005KT 33/11 A2992 RMK A01 T03340107  RH  026%=      5-min Rain = 0
KGGS 050215Z 13004KT 33/11 A2992 RMK A01 T03330109  RH  026%=      5-min Rain = 0
KGGS 050220Z 13005KT 33/11 A2992 RMK A01 T03320109  RH  026%=      5-min Rain = 0
KGGS 050225Z 14005KT 33/11 A2992 RMK A01 T03330106  RH  026%=      5-min Rain = 0
KGGS 050230Z 13005KT 34/10 A2993 RMK A01 T03350104  RH  025%=      5-min Rain = 0
KGGS 050235Z 13005G10KT 34/10 A2993 RMK A01 T03350104  RH  025%=      5-min Rain = 0
KGGS 050240Z 13006KT 34/10 A2993 RMK A01 T03360103  RH  025%=      5-min Rain = 0
KGGS 050245Z 13006KT 34/10 A2993 RMK A01 T03350103  RH  025%=      5-min Rain = 0
KGGS 050250Z 13005KT 33/10 A2993 RMK A01 T03340103  RH  025%=      5-min Rain = 0
KGGS 050255Z 13006KT 33/10 A2993 RMK A01 T03330104  RH  026%=      5-min Rain = 0
KGGS 050300Z 14006KT 33/11 A2993 RMK A01 T03310105  RH  026%=      5-min Rain = 0
KGGS 050305Z 14006KT 33/11 A2993 RMK A01 T03290108  RH  027%=      5-min Rain = 0
KGGS 050310Z 15006KT 33/11 A2994 RMK A01 T03260113  RH  028%=      5-min Rain = 0
KGGS 050315Z 15006KT 32/12 A2994 RMK A01 T03200123  RH  031%=      5-min Rain = 0
KGGS 050320Z 15006KT 32/12 A2994 RMK A01 T03170119  RH  031%=      5-min Rain = 0
KGGS 050325Z 14007KT 32/11 A2994 RMK A01 T03200113  RH  029%=      5-min Rain = 0
KGGS 050330Z 14008KT 32/11 A2993 RMK A01 T03230111  RH  028%=      5-min Rain = 0
KGGS 050335Z 15008KT 32/11 A2993 RMK A01 T03230109  RH  028%=      5-min Rain = 0
KGGS 050340Z 15007KT 32/11 A2993 RMK A01 T03210108  RH  028%=      5-min Rain = 0
KGGS 050345Z 14006KT 32/11 A2994 RMK A01 T03190107  RH  028%=      5-min Rain = 0
KGGS 050350Z 14005KT 32/11 A2994 RMK A01 T03160107  RH  028%=      5-min Rain = 0
KGGS 050355Z 13004KT 31/11 A2994 RMK A01 T03130107  RH  029%=      5-min Rain = 0
KGGS 050400Z 14005KT 31/11 A2993 RMK A01 T03090107  RH  030%=      5-min Rain = 0
KGGS 050405Z 13005KT 31/11 A2993 RMK A01 T03050108  RH  031%=      5-min Rain = 0
KGGS 050410Z 12005KT 30/11 A2993 RMK A01 T03010109  RH  032%=      5-min Rain = 0
KGGS 050415Z 13005KT 30/11 A2993 RMK A01 T02990108  RH  032%=      5-min Rain = 0
KGGS 050420Z 14006KT 30/11 A2993 RMK A01 T02980108  RH  032%=      5-min Rain = 0
KGGS 050425Z 15006KT 30/11 A2993 RMK A01 T02980108  RH  032%=      5-min Rain = 0
KGGS 050430Z 15007KT 30/11 A2993 RMK A01 T02990105  RH  031%=      5-min Rain = 0
KGGS 050435Z 15006KT 30/11 A2993 RMK A01 T03030105  RH  030%=      5-min Rain = 0
KGGS 050440Z 15006KT 30/11 A2993 RMK A01 T02990106  RH  031%=      5-min Rain = 0
KGGS 050445Z 14005KT 30/11 A2993 RMK A01 T02960106  RH  032%=      5-min Rain = 0
KGGS 050450Z 11004KT 29/11 A2993 RMK A01 T02940107  RH  033%=      5-min Rain = 0
KGGS 050455Z 07004KT 29/11 A2993 RMK A01 T02890110  RH  034%=      5-min Rain = 0

Page generated in 0.0094 seconds.